Tuesday, September 25, 2018, 6:57 PM EDT
Back to Local

KELM, Elmira County Airport

Location: Horseheads, NY, United States Lat: 42.167
Local Time: 6:57 PM EDT (22:57 GMT) Lon: -76.9
Time Zone: US/Eastern Elev: 954 ft

Show me the last for .
Show Decoded

2018-09-25 17:53 METAR KELM 252153Z 21006KT 10SM BKN021 BKN034 21/17 A3008 RMK AO2 SLP184
                 T02060167 =
2018-09-25 16:53 METAR KELM 252053Z 22008KT 10SM BKN021 BKN034 21/17 A3009 RMK AO2 SLP186
                 T02110172 56023 =
2018-09-25 15:53 METAR KELM 251953Z VRB03KT 10SM OVC021 20/17 A3011 RMK AO2 SLP192 T02000167 =
2018-09-25 14:53 METAR KELM 251853Z 13004KT 10SM OVC019 19/17 A3012 RMK AO2 SLP199 T01940167 =
2018-09-25 14:04 METAR KELM 251804Z VRB03KT 10SM BKN015 OVC019 18/16 A3015 RMK AO2 T01830156 =
2018-09-25 13:53 METAR KELM 251753Z 10003KT 10SM OVC013 18/15 A3016 RMK AO2 SLP211 60001
                 T01780150 10178 20133 58023 =
2018-09-25 12:53 METAR KELM 251653Z 13004KT 10SM OVC011 17/14 A3018 RMK AO2 SLP219 T01670144 =
2018-09-25 12:07 METAR KELM 251607Z 09003KT 10SM OVC010 16/13 A3020 RMK AO2 T01560133 =
2018-09-25 11:53 METAR KELM 251553Z 00000KT 7SM OVC009 16/13 A3021 RMK AO2 RAE33 SLP228 P0000
                 T01560133 =
2018-09-25 10:53 METAR KELM 251453Z VRB04KT 10SM -RA OVC010 15/12 A3023 RMK AO2 RAE11B47 CIG
                 009V012 SLP235 P0000 60001 T01500122 58013 =
2018-09-25 09:53 METAR KELM 251353Z 00000KT 10SM -RA BKN010 BKN014 OVC018 14/12 A3024 RMK AO2
                 RAB03E16B51 CIG 008V013 SLP239 P0000 T01440122 =
2018-09-25 08:53 METAR KELM 251253Z 14004KT 10SM BKN011 OVC018 14/12 A3025 RMK AO2 RAE26 SLP244
                 P0001 T01390117 =
2018-09-25 08:41 METAR KELM 251241Z 12006KT 10SM OVC011 14/12 A3026 RMK AO2 RAE26 CIG 008V015
                 P0001 T01390117 =
2018-09-25 07:53 METAR KELM 251153Z 12003KT 10SM -RA BKN009 BKN013 OVC065 13/11 A3026 RMK AO2
                 SLP248 P0002 60075 70089 T01330111 10144 20133 56014 =
2018-09-25 07:33 METAR KELM 251133Z VRB04KT 10SM -RA OVC009 13/11 A3027 RMK AO2 CIG 008V013 P0001
                 T01330111 =
2018-09-25 06:53 METAR KELM 251053Z 12008KT 10SM -RA BKN010 OVC015 13/11 A3028 RMK AO2 SLP253
                 P0004 T01330111 =
2018-09-25 06:07 METAR KELM 251007Z 14011KT 8SM -RA BKN011 OVC060 13/11 A3029 RMK AO2 P0001
                 T01330111 =
2018-09-25 05:53 METAR KELM 250953Z 09008KT 050V150 6SM RA BR SCT011 OVC060 13/11 A3029 RMK AO2
                 SLP257 P0009 T01330111 =
2018-09-25 05:23 METAR KELM 250923Z AUTO 08005KT 6SM -RA BR SCT011 BKN049 OVC060 13/11 A3030 RMK
                 AO2 P0004 T01330111 =
2018-09-25 05:05 METAR KELM 250905Z AUTO 00000KT 4SM RA BR SCT009 BKN019 OVC033 13/12 A3031 RMK
                 AO2 P0003 T01330117 =
2018-09-25 04:53 METAR KELM 250853Z AUTO VRB05KT 4SM RA BR SCT012 BKN018 OVC028 13/11 A3031 RMK
                 AO2 SLP262 P0020 60060 T01330111 55015 =
2018-09-25 04:44 METAR KELM 250844Z AUTO 00000KT 5SM RA BR SCT012 BKN021 OVC027 13/12 A3031 RMK
                 AO2 P0017 T01330117 =
2018-09-25 03:53 METAR KELM 250753Z AUTO 08003KT 3SM +RA BR OVC012 13/11 A3031 RMK AO2 SLP261
                 P0024 T01330111 =
2018-09-25 02:53 METAR KELM 250653Z AUTO VRB04KT 5SM RA BKN011 BKN017 OVC022 14/11 A3033 RMK AO2
                 SLP269 P0016 T01390111 =
2018-09-25 01:53 METAR KELM 250553Z AUTO 00000KT 5SM RA BR OVC012 14/12 A3035 RMK AO2 SLP277
                 P0012 60014 T01390117 10172 20139 58003 =
2018-09-25 01:45 METAR KELM 250545Z AUTO 00000KT 5SM RA BR OVC014 14/12 A3035 RMK AO2 P0011
                 T01390117 =
2018-09-25 01:16 METAR KELM 250516Z AUTO 00000KT 4SM +RA BKN018 BKN025 OVC032 14/12 A3035 RMK AO2
                 P0005 T01440117 =
2018-09-25 00:53 METAR KELM 250453Z AUTO 00000KT 9SM -RA OVC034 15/11 A3036 RMK AO2 SLP279 P0002
                 T01500111 402060078 =
2018-09-24 23:53 METAR KELM 250353Z AUTO 16005KT 10SM -RA BKN032 BKN039 OVC060 16/12 A3036 RMK
                 AO2 RAB47 SLP279 P0000 T01610117 =
2018-09-24 22:53 METAR KELM 250253Z VRB04KT 10SM SCT035 OVC070 16/11 A3036 RMK AO2 SLP281
                 T01610106 50000 =
2018-09-24 21:53 METAR KELM 250153Z 00000KT 10SM OVC075 17/10 A3037 RMK AO2 SLP283 T01670100 =
2018-09-24 20:53 METAR KELM 250053Z 00000KT 10SM SCT042 SCT070 BKN085 17/09 A3036 RMK AO2 SLP281
                 T01670094 =
2018-09-24 19:53 METAR KELM 242353Z 00000KT 10SM CLR 17/10 A3036 RMK AO2 SLP281 T01670100 10206
                 20167 55000 =

Support USWX by starting your Amazon purchase here.